createdAt,value
2024-04-18T00:01:51.468Z,4.35
2024-04-18T00:06:54.492Z,4.90
2024-04-18T00:11:57.786Z,4.68
2024-04-18T00:17:23.284Z,5.07
2024-04-18T00:22:26.282Z,4.45
2024-04-18T00:27:38.782Z,4.80
2024-04-18T00:32:44.363Z,5.25
2024-04-18T00:38:16.749Z,4.75
2024-04-18T00:43:19.656Z,5.82
2024-04-18T00:48:31.135Z,5.35
2024-04-18T00:53:35.051Z,5.38
2024-04-18T00:58:57.051Z,5.55
2024-04-18T01:04:02.706Z,5.38
2024-04-18T01:09:18.111Z,4.93
2024-04-18T01:14:39.660Z,5.63
2024-04-18T01:19:46.224Z,5.90
2024-04-18T01:24:49.199Z,5.88
2024-04-18T01:29:54.762Z,5.95
2024-04-18T01:35:15.736Z,5.82
2024-04-18T01:40:24.684Z,5.28
2024-04-18T01:45:59.523Z,5.82
2024-04-18T01:51:04.087Z,5.78
2024-04-18T01:56:10.556Z,5.95
2024-04-18T02:01:30.902Z,5.88
2024-04-18T02:06:33.947Z,6.00
2024-04-18T02:11:56.831Z,6.25
2024-04-18T02:17:21.297Z,6.30
2024-04-18T02:22:39.538Z,6.70
2024-04-18T02:28:01.157Z,6.15
2024-04-18T02:33:07.044Z,6.82
2024-04-18T02:38:20.676Z,6.57
2024-04-18T02:43:23.586Z,8.82
2024-04-18T02:48:29.325Z,9.32
2024-04-18T02:53:49.581Z,8.45
2024-04-18T02:58:52.525Z,8.20
2024-04-18T03:03:58.110Z,8.75
2024-04-18T03:09:10.074Z,8.43
2024-04-18T03:14:28.872Z,9.38
2024-04-18T03:19:46.782Z,9.55
2024-04-18T03:25:10.061Z,8.82
2024-04-18T03:30:32.924Z,10.30
2024-04-18T03:35:47.788Z,10.05
2024-04-18T03:40:59.288Z,9.55
2024-04-18T03:46:03.549Z,11.07
2024-04-18T03:51:09.341Z,10.73
2024-04-18T03:56:30.976Z,10.10
2024-04-18T04:01:36.336Z,10.30
2024-04-18T04:06:41.891Z,9.38
2024-04-18T04:11:44.778Z,11.30
2024-04-18T04:16:47.739Z,9.50
2024-04-18T04:21:56.717Z,9.85
2024-04-18T04:26:59.627Z,10.45
2024-04-18T04:32:02.624Z,9.38
2024-04-18T04:37:08.169Z,10.73
2024-04-18T04:42:11.138Z,11.50
2024-04-18T04:47:14.199Z,11.25
2024-04-18T04:52:26.505Z,10.63
2024-04-18T04:57:29.566Z,11.75
2024-04-18T05:02:52.595Z,11.93
2024-04-18T05:07:58.142Z,10.30
2024-04-18T05:13:16.819Z,9.70
2024-04-18T05:18:19.813Z,8.98
2024-04-18T05:23:25.351Z,9.68
2024-04-18T05:28:42.201Z,9.18
2024-04-18T05:33:45.238Z,9.18
2024-04-18T05:38:50.774Z,8.80
2024-04-18T05:43:54.199Z,7.70
2024-04-18T05:48:57.240Z,7.72
2024-04-18T05:54:02.836Z,7.10
2024-04-18T05:59:05.750Z,6.78
2024-04-18T06:04:08.770Z,6.43
2024-04-18T06:09:14.311Z,6.28
2024-04-18T06:14:17.275Z,5.55
2024-04-18T06:19:20.164Z,5.95
2024-04-18T06:24:26.349Z,5.45
2024-04-18T06:29:30.579Z,5.32
2024-04-18T06:34:33.600Z,5.65
2024-04-18T06:39:39.495Z,5.07
2024-04-18T06:44:42.449Z,5.63
2024-04-18T06:49:45.386Z,5.28
2024-04-18T06:54:50.969Z,6.20
2024-04-18T07:00:15.053Z,6.82
2024-04-18T07:05:18.273Z,6.60
2024-04-18T07:10:26.902Z,7.00
2024-04-18T07:15:29.917Z,6.85
2024-04-18T07:20:59.624Z,7.03
2024-04-18T07:26:14.692Z,7.13
2024-04-18T07:31:18.755Z,5.72
2024-04-18T07:36:41.686Z,6.03
2024-04-18T07:41:47.171Z,5.88
2024-04-18T07:46:50.889Z,6.03
2024-04-18T07:51:53.894Z,6.38
2024-04-18T07:57:02.810Z,6.25
2024-04-18T08:02:07.809Z,6.10
2024-04-18T08:07:15.035Z,6.55
2024-04-18T08:12:27.044Z,7.95
2024-04-18T08:17:32.954Z,7.40
2024-04-18T08:22:36.082Z,6.95
2024-04-18T08:27:41.656Z,7.57
2024-04-18T08:32:44.716Z,7.45
2024-04-18T08:37:47.646Z,6.78
2024-04-18T08:42:53.837Z,5.47
2024-04-18T08:47:59.833Z,4.38
2024-04-18T08:53:04.546Z,5.18
2024-04-18T08:58:13.222Z,2.83
2024-04-18T09:03:16.530Z,2.63
2024-04-18T09:08:19.604Z,2.15
2024-04-18T09:13:26.259Z,2.30
2024-04-18T09:18:33.968Z,1.40
2024-04-18T09:23:36.995Z,2.08
2024-04-18T09:28:42.470Z,1.98
2024-04-18T09:33:46.912Z,2.22
2024-04-18T09:38:51.406Z,1.45
2024-04-18T09:44:08.507Z,1.25
2024-04-18T09:49:13.586Z,1.63
2024-04-18T09:54:17.109Z,1.10
2024-04-18T09:59:25.115Z,1.00
2024-04-18T10:04:28.538Z,1.23
2024-04-18T10:09:32.442Z,1.10
2024-04-18T10:14:40.315Z,1.55
2024-04-18T10:19:49.093Z,1.25
2024-04-18T10:24:53.833Z,1.48
2024-04-18T10:30:01.404Z,1.63
2024-04-18T10:35:04.483Z,0.70
2024-04-18T10:40:08.897Z,0.77
2024-04-18T10:45:15.004Z,0.85
2024-04-18T10:50:19.139Z,0.82
2024-04-18T10:55:22.049Z,1.13
2024-04-18T11:00:28.403Z,0.98
2024-04-18T11:05:31.587Z,4.35
2024-04-18T11:10:36.708Z,1.58
2024-04-18T11:15:42.301Z,0.80
2024-04-18T11:20:46.234Z,0.98
2024-04-18T11:25:49.884Z,1.00
2024-04-18T11:30:55.428Z,0.82
2024-04-18T11:35:59.207Z,0.70
2024-04-18T11:41:02.131Z,0.90
2024-04-18T11:46:07.957Z,1.00
2024-04-18T11:51:10.872Z,1.40
2024-04-18T11:56:14.099Z,1.00
2024-04-18T12:01:19.679Z,1.00
2024-04-18T12:06:22.638Z,0.88
2024-04-18T12:11:26.914Z,0.73
2024-04-18T12:16:49.304Z,0.90
2024-04-18T12:21:52.269Z,1.30
2024-04-18T12:26:55.164Z,1.30
2024-04-18T12:32:01.237Z,1.02
2024-04-18T12:37:05.404Z,0.80
2024-04-18T12:42:11.283Z,1.17
2024-04-18T12:47:16.878Z,1.10
2024-04-18T12:52:22.537Z,0.80
2024-04-18T12:57:27.004Z,0.90
2024-04-18T13:02:41.825Z,0.73
2024-04-18T13:07:44.820Z,1.15
2024-04-18T13:12:56.855Z,0.95
2024-04-18T13:18:11.459Z,0.50
2024-04-18T13:23:32.965Z,0.73
2024-04-18T13:28:35.956Z,0.90
2024-04-18T13:33:57.482Z,0.60
2024-04-18T13:39:01.387Z,0.70
2024-04-18T13:44:10.466Z,0.90
2024-04-18T13:49:19.922Z,0.93
2024-04-18T13:54:29.201Z,0.95
2024-04-18T13:59:32.165Z,0.60
2024-04-18T14:04:37.696Z,0.90
2024-04-18T14:09:56.142Z,0.90
2024-04-18T14:15:29.648Z,0.85
2024-04-18T14:20:56.652Z,1.10
2024-04-18T14:26:00.192Z,1.10
2024-04-18T14:31:03.802Z,1.00
2024-04-18T14:36:24.485Z,0.68
2024-04-18T14:41:27.460Z,1.10
2024-04-18T14:46:30.541Z,0.80
2024-04-18T14:51:56.218Z,1.30
2024-04-18T14:57:01.994Z,1.45
2024-04-18T15:02:24.169Z,0.93
2024-04-18T15:07:39.509Z,1.33
2024-04-18T15:12:53.169Z,1.10
2024-04-18T15:17:59.543Z,1.30
2024-04-18T15:23:05.102Z,1.02
2024-04-18T15:28:08.828Z,0.95
2024-04-18T15:33:11.768Z,0.80
2024-04-18T15:38:20.706Z,0.65
2024-04-18T15:43:42.087Z,0.80
2024-04-18T15:49:05.143Z,1.17
2024-04-18T15:54:10.854Z,1.02
2024-04-18T15:59:13.785Z,0.90
2024-04-18T16:04:27.241Z,1.27
2024-04-18T16:09:39.066Z,0.88
2024-04-18T16:14:57.342Z,1.10
2024-04-18T16:20:00.382Z,1.00
2024-04-18T16:25:16.505Z,0.80
2024-04-18T16:30:20.765Z,0.63
2024-04-18T16:35:23.844Z,0.93
2024-04-18T16:40:47.876Z,0.70
2024-04-18T16:46:05.288Z,1.00
2024-04-18T16:51:08.626Z,1.10
2024-04-18T16:56:32.613Z,0.80
2024-04-18T17:01:35.622Z,0.85
2024-04-18T17:06:45.697Z,0.77
2024-04-18T17:11:54.048Z,1.20
2024-04-18T17:17:16.057Z,0.85
2024-04-18T17:22:31.266Z,0.90
2024-04-18T17:27:36.859Z,1.10
2024-04-18T17:32:41.015Z,0.70
2024-04-18T17:38:00.247Z,1.00
2024-04-18T17:43:25.734Z,0.77
2024-04-18T17:48:32.927Z,1.10
2024-04-18T17:53:36.065Z,0.85
2024-04-18T17:58:41.627Z,1.05
2024-04-18T18:03:44.684Z,1.30
2024-04-18T18:08:48.714Z,1.02
2024-04-18T18:14:03.666Z,1.13
2024-04-18T18:19:25.587Z,1.00
2024-04-18T18:24:37.343Z,1.25
2024-04-18T18:29:43.802Z,1.05
2024-04-18T18:34:48.760Z,1.23
2024-04-18T18:39:51.798Z,1.33
2024-04-18T18:44:57.387Z,1.35
2024-04-18T18:50:00.407Z,0.98
2024-04-18T18:55:03.424Z,1.02
2024-04-18T19:00:10.299Z,1.10
2024-04-18T19:05:13.524Z,1.50
2024-04-18T19:10:17.239Z,1.35
2024-04-18T19:15:22.982Z,1.25
2024-04-18T19:20:26.592Z,1.45
2024-04-18T19:25:29.980Z,1.42
2024-04-18T19:30:35.613Z,1.70
2024-04-18T19:35:38.534Z,1.40
2024-04-18T19:40:41.586Z,1.70
2024-04-18T19:45:57.064Z,1.60
2024-04-18T19:51:00.232Z,1.77
2024-04-18T19:56:03.157Z,1.60
2024-04-18T20:01:08.747Z,1.52
2024-04-18T20:06:11.763Z,3.45
2024-04-18T20:11:28.107Z,2.28
2024-04-18T20:16:33.660Z,2.08
2024-04-18T20:21:48.606Z,2.58
2024-04-18T20:26:51.590Z,2.20
2024-04-18T20:32:18.054Z,2.45
2024-04-18T20:37:21.522Z,2.92
2024-04-18T20:42:24.575Z,2.95
2024-04-18T20:47:39.186Z,2.92
2024-04-18T20:52:42.131Z,3.13
2024-04-18T20:57:45.101Z,3.53
2024-04-18T21:02:50.689Z,3.55
2024-04-18T21:07:53.745Z,3.38
2024-04-18T21:12:56.812Z,3.38
2024-04-18T21:18:02.429Z,3.80
2024-04-18T21:23:05.591Z,3.45
2024-04-18T21:28:08.996Z,3.55
2024-04-18T21:33:14.689Z,3.70
2024-04-18T21:38:17.865Z,3.20
2024-04-18T21:43:21.320Z,3.42
2024-04-18T21:48:27.502Z,3.88
2024-04-18T21:53:31.185Z,3.03
2024-04-18T21:58:34.194Z,3.20
2024-04-18T22:03:39.860Z,3.03
2024-04-18T22:08:42.948Z,3.13
2024-04-18T22:13:46.940Z,2.63
2024-04-18T22:18:52.653Z,2.28
2024-04-18T22:24:10.993Z,1.90
2024-04-18T22:29:14.055Z,2.15
2024-04-18T22:34:27.774Z,1.70
2024-04-18T22:39:34.488Z,2.08
2024-04-18T22:44:37.570Z,2.10
2024-04-18T22:49:43.153Z,1.70
2024-04-18T22:54:46.236Z,1.80
2024-04-18T22:59:51.971Z,1.90
2024-04-18T23:04:57.828Z,2.00
2024-04-18T23:10:00.907Z,1.95
2024-04-18T23:15:03.909Z,2.70
2024-04-18T23:20:11.554Z,3.10
2024-04-18T23:25:14.662Z,1.77
2024-04-18T23:30:17.788Z,2.25
2024-04-18T23:35:23.596Z,2.53
2024-04-18T23:40:26.632Z,2.65
2024-04-18T23:45:29.715Z,2.78
2024-04-18T23:50:35.350Z,2.72
2024-04-18T23:55:38.358Z,2.70
